sensor_id;sensor_type;location;lat;lon;timestamp;P1;P2;P0
57049;PMS7003;42935;50.966;16.992;2023-03-30T00:00:25;17;16;11
57049;PMS7003;42935;50.966;16.992;2023-03-30T00:03:44;20;16;11
57049;PMS7003;42935;50.966;16.992;2023-03-30T00:07:09;17;16;9
57049;PMS7003;42935;50.966;16.992;2023-03-30T00:10:29;16;14;10
57049;PMS7003;42935;50.966;16.992;2023-03-30T00:13:51;18;15;11
57049;PMS7003;42935;50.966;16.992;2023-03-30T00:17:11;20;15;12
57049;PMS7003;42935;50.966;16.992;2023-03-30T00:20:28;19;14;10
57049;PMS7003;42935;50.966;16.992;2023-03-30T00:23:48;17;14;10
57049;PMS7003;42935;50.966;16.992;2023-03-30T00:27:09;19;17;11
57049;PMS7003;42935;50.966;16.992;2023-03-30T00:30:26;28;22;14
57049;PMS7003;42935;50.966;16.992;2023-03-30T00:33:43;17;14;11
57049;PMS7003;42935;50.966;16.992;2023-03-30T00:37:03;19;15;10
57049;PMS7003;42935;50.966;16.992;2023-03-30T00:40:25;19;17;11
57049;PMS7003;42935;50.966;16.992;2023-03-30T00:47:14;17;15;11
57049;PMS7003;42935;50.966;16.992;2023-03-30T00:50:43;18;13;10
57049;PMS7003;42935;50.966;16.992;2023-03-30T00:54:10;13;12;9
57049;PMS7003;42935;50.966;16.992;2023-03-30T00:57:37;18;14;10
57049;PMS7003;42935;50.966;16.992;2023-03-30T01:01:02;16;12;9
57049;PMS7003;42935;50.966;16.992;2023-03-30T01:04:20;16;14;9
57049;PMS7003;42935;50.966;16.992;2023-03-30T01:07:40;15;11;9
57049;PMS7003;42935;50.966;16.992;2023-03-30T01:11:06;14;12;9
57049;PMS7003;42935;50.966;16.992;2023-03-30T01:14:26;15;14;9
57049;PMS7003;42935;50.966;16.992;2023-03-30T01:17:54;15;13;8
57049;PMS7003;42935;50.966;16.992;2023-03-30T01:25:07;12;11;7
57049;PMS7003;42935;50.966;16.992;2023-03-30T01:46:05;15;14;10
57049;PMS7003;42935;50.966;16.992;2023-03-30T01:49:28;16;14;10
57049;PMS7003;42935;50.966;16.992;2023-03-30T01:52:52;17;15;11
57049;PMS7003;42935;50.966;16.992;2023-03-30T02:03:20;16;14;10
57049;PMS7003;42935;50.966;16.992;2023-03-30T02:06:45;15;14;10
57049;PMS7003;42935;50.966;16.992;2023-03-30T02:10:14;14;13;9
57049;PMS7003;42935;50.966;16.992;2023-03-30T02:13:42;16;15;10
57049;PMS7003;42935;50.966;16.992;2023-03-30T02:17:14;15;13;9
57049;PMS7003;42935;50.966;16.992;2023-03-30T02:20:34;14;13;9
57049;PMS7003;42935;50.966;16.992;2023-03-30T02:24:00;13;12;9
57049;PMS7003;42935;50.966;16.992;2023-03-30T02:27:24;16;14;10
57049;PMS7003;42935;50.966;16.992;2023-03-30T02:31:15;16;13;9
57049;PMS7003;42935;50.966;16.992;2023-03-30T02:45:13;17;15;9
57049;PMS7003;42935;50.966;16.992;2023-03-30T02:52:22;17;15;10
57049;PMS7003;42935;50.966;16.992;2023-03-30T02:55:53;17;15;11
57049;PMS7003;42935;50.966;16.992;2023-03-30T03:03:05;14;12;10
57049;PMS7003;42935;50.966;16.992;2023-03-30T03:06:36;19;16;11
57049;PMS7003;42935;50.966;16.992;2023-03-30T03:09:54;17;16;10
57049;PMS7003;42935;50.966;16.992;2023-03-30T03:13:45;15;15;10
57049;PMS7003;42935;50.966;16.992;2023-03-30T03:17:03;18;14;11
57049;PMS7003;42935;50.966;16.992;2023-03-30T03:20:21;17;16;11
57049;PMS7003;42935;50.966;16.992;2023-03-30T03:23:46;14;12;10
57049;PMS7003;42935;50.966;16.992;2023-03-30T03:27:06;20;14;11
57049;PMS7003;42935;50.966;16.992;2023-03-30T03:30:30;21;16;11
57049;PMS7003;42935;50.966;16.992;2023-03-30T03:33:50;17;15;11
57049;PMS7003;42935;50.966;16.992;2023-03-30T03:37:11;20;17;13
57049;PMS7003;42935;50.966;16.992;2023-03-30T03:40:32;18;14;9
57049;PMS7003;42935;50.966;16.992;2023-03-30T03:43:52;24;16;11
57049;PMS7003;42935;50.966;16.992;2023-03-30T03:47:16;21;14;11
57049;PMS7003;42935;50.966;16.992;2023-03-30T03:50:36;24;17;11
57049;PMS7003;42935;50.966;16.992;2023-03-30T03:53:56;21;16;12
57049;PMS7003;42935;50.966;16.992;2023-03-30T03:57:18;20;17;11
57049;PMS7003;42935;50.966;16.992;2023-03-30T04:00:41;15;14;11
57049;PMS7003;42935;50.966;16.992;2023-03-30T04:04:01;14;14;10
57049;PMS7003;42935;50.966;16.992;2023-03-30T04:07:21;22;17;11
57049;PMS7003;42935;50.966;16.992;2023-03-30T04:10:41;20;17;12
57049;PMS7003;42935;50.966;16.992;2023-03-30T04:14:01;17;15;10
57049;PMS7003;42935;50.966;16.992;2023-03-30T04:17:19;17;13;10
57049;PMS7003;42935;50.966;16.992;2023-03-30T04:20:36;19;17;10
57049;PMS7003;42935;50.966;16.992;2023-03-30T04:23:56;26;18;12
57049;PMS7003;42935;50.966;16.992;2023-03-30T04:27:19;21;15;10
57049;PMS7003;42935;50.966;16.992;2023-03-30T04:30:49;26;20;12
57049;PMS7003;42935;50.966;16.992;2023-03-30T04:34:15;23;18;11
57049;PMS7003;42935;50.966;16.992;2023-03-30T04:37:40;23;16;12
57049;PMS7003;42935;50.966;16.992;2023-03-30T04:41:00;22;17;11
57049;PMS7003;42935;50.966;16.992;2023-03-30T04:44:19;26;21;14
57049;PMS7003;42935;50.966;16.992;2023-03-30T04:47:39;23;20;15
57049;PMS7003;42935;50.966;16.992;2023-03-30T04:51:00;21;18;13
57049;PMS7003;42935;50.966;16.992;2023-03-30T04:54:20;25;22;15
57049;PMS7003;42935;50.966;16.992;2023-03-30T04:57:40;25;21;13
57049;PMS7003;42935;50.966;16.992;2023-03-30T05:00:56;24;21;13
57049;PMS7003;42935;50.966;16.992;2023-03-30T05:04:20;24;18;13
57049;PMS7003;42935;50.966;16.992;2023-03-30T05:07:40;21;20;12
57049;PMS7003;42935;50.966;16.992;2023-03-30T05:10:56;27;23;16
57049;PMS7003;42935;50.966;16.992;2023-03-30T05:14:21;27;20;14
57049;PMS7003;42935;50.966;16.992;2023-03-30T05:17:45;27;22;14
57049;PMS7003;42935;50.966;16.992;2023-03-30T05:21:06;24;20;15
57049;PMS7003;42935;50.966;16.992;2023-03-30T05:24:25;26;21;14
57049;PMS7003;42935;50.966;16.992;2023-03-30T05:27:45;23;19;14
57049;PMS7003;42935;50.966;16.992;2023-03-30T05:31:07;21;20;14
57049;PMS7003;42935;50.966;16.992;2023-03-30T05:34:33;21;19;13
57049;PMS7003;42935;50.966;16.992;2023-03-30T05:37:53;25;21;13
57049;PMS7003;42935;50.966;16.992;2023-03-30T05:41:13;26;20;13
57049;PMS7003;42935;50.966;16.992;2023-03-30T05:44:38;25;22;14
57049;PMS7003;42935;50.966;16.992;2023-03-30T05:47:58;23;20;14
57049;PMS7003;42935;50.966;16.992;2023-03-30T05:51:26;30;24;16
57049;PMS7003;42935;50.966;16.992;2023-03-30T05:54:44;25;20;13
57049;PMS7003;42935;50.966;16.992;2023-03-30T05:58:04;28;22;13
57049;PMS7003;42935;50.966;16.992;2023-03-30T06:01:25;26;21;14
57049;PMS7003;42935;50.966;16.992;2023-03-30T06:04:45;24;17;12
57049;PMS7003;42935;50.966;16.992;2023-03-30T06:08:05;28;22;15
57049;PMS7003;42935;50.966;16.992;2023-03-30T06:11:21;25;21;14
57049;PMS7003;42935;50.966;16.992;2023-03-30T06:14:41;23;20;15
57049;PMS7003;42935;50.966;16.992;2023-03-30T06:18:01;20;17;12
57049;PMS7003;42935;50.966;16.992;2023-03-30T06:21:25;21;18;13
57049;PMS7003;42935;50.966;16.992;2023-03-30T06:24:49;25;20;14
57049;PMS7003;42935;50.966;16.992;2023-03-30T06:28:10;24;19;13
57049;PMS7003;42935;50.966;16.992;2023-03-30T06:31:34;25;20;14
57049;PMS7003;42935;50.966;16.992;2023-03-30T06:34:54;24;20;15
57049;PMS7003;42935;50.966;16.992;2023-03-30T06:38:14;26;20;14
57049;PMS7003;42935;50.966;16.992;2023-03-30T06:41:35;22;20;14
57049;PMS7003;42935;50.966;16.992;2023-03-30T06:44:55;24;20;13
57049;PMS7003;42935;50.966;16.992;2023-03-30T06:48:15;24;21;15
57049;PMS7003;42935;50.966;16.992;2023-03-30T06:52:05;26;22;14
57049;PMS7003;42935;50.966;16.992;2023-03-30T06:55:31;26;22;15
57049;PMS7003;42935;50.966;16.992;2023-03-30T06:58:53;25;22;15
57049;PMS7003;42935;50.966;16.992;2023-03-30T07:02:13;25;19;14
57049;PMS7003;42935;50.966;16.992;2023-03-30T07:05:32;25;19;14
57049;PMS7003;42935;50.966;16.992;2023-03-30T07:08:52;22;18;14
57049;PMS7003;42935;50.966;16.992;2023-03-30T07:12:13;23;20;15
57049;PMS7003;42935;50.966;16.992;2023-03-30T07:15:34;24;16;12
57049;PMS7003;42935;50.966;16.992;2023-03-30T07:18:53;22;18;13
57049;PMS7003;42935;50.966;16.992;2023-03-30T07:22:43;23;19;13
57049;PMS7003;42935;50.966;16.992;2023-03-30T07:26:01;23;20;14
57049;PMS7003;42935;50.966;16.992;2023-03-30T07:29:21;22;20;14
57049;PMS7003;42935;50.966;16.992;2023-03-30T07:32:41;28;21;14
57049;PMS7003;42935;50.966;16.992;2023-03-30T07:36:07;25;21;14
57049;PMS7003;42935;50.966;16.992;2023-03-30T07:39:24;21;19;14
57049;PMS7003;42935;50.966;16.992;2023-03-30T07:42:43;20;17;13
57049;PMS7003;42935;50.966;16.992;2023-03-30T07:46:02;21;19;13
57049;PMS7003;42935;50.966;16.992;2023-03-30T07:49:22;20;16;12
57049;PMS7003;42935;50.966;16.992;2023-03-30T07:52:38;19;16;12
57049;PMS7003;42935;50.966;16.992;2023-03-30T07:56:05;25;20;14
57049;PMS7003;42935;50.966;16.992;2023-03-30T07:59:22;19;19;12
57049;PMS7003;42935;50.966;16.992;2023-03-30T08:02:42;21;19;13
57049;PMS7003;42935;50.966;16.992;2023-03-30T08:06:02;20;18;12
57049;PMS7003;42935;50.966;16.992;2023-03-30T08:09:27;23;16;12
57049;PMS7003;42935;50.966;16.992;2023-03-30T08:12:43;20;18;14
57049;PMS7003;42935;50.966;16.992;2023-03-30T08:16:02;16;14;10
57049;PMS7003;42935;50.966;16.992;2023-03-30T08:19:26;16;14;11
57049;PMS7003;42935;50.966;16.992;2023-03-30T08:22:50;17;13;9
57049;PMS7003;42935;50.966;16.992;2023-03-30T08:26:08;17;15;10
57049;PMS7003;42935;50.966;16.992;2023-03-30T08:29:28;17;13;11
57049;PMS7003;42935;50.966;16.992;2023-03-30T08:32:50;16;15;11
57049;PMS7003;42935;50.966;16.992;2023-03-30T08:36:12;18;14;10
57049;PMS7003;42935;50.966;16.992;2023-03-30T08:39:28;15;13;10
57049;PMS7003;42935;50.966;16.992;2023-03-30T08:46:18;13;11;8
57049;PMS7003;42935;50.966;16.992;2023-03-30T08:49:43;14;13;10
57049;PMS7003;42935;50.966;16.992;2023-03-30T08:53:06;13;13;10
57049;PMS7003;42935;50.966;16.992;2023-03-30T08:56:36;15;14;10
57049;PMS7003;42935;50.966;16.992;2023-03-30T09:00:07;15;14;10
57049;PMS7003;42935;50.966;16.992;2023-03-30T09:07:03;12;11;8
57049;PMS7003;42935;50.966;16.992;2023-03-30T09:10:33;14;13;9
57049;PMS7003;42935;50.966;16.992;2023-03-30T09:13:53;13;12;8
57049;PMS7003;42935;50.966;16.992;2023-03-30T09:17:20;13;13;9
57049;PMS7003;42935;50.966;16.992;2023-03-30T09:20:46;14;11;8
57049;PMS7003;42935;50.966;16.992;2023-03-30T09:24:13;17;14;9
57049;PMS7003;42935;50.966;16.992;2023-03-30T09:27:39;14;12;8
57049;PMS7003;42935;50.966;16.992;2023-03-30T09:31:06;14;11;9
57049;PMS7003;42935;50.966;16.992;2023-03-30T09:34:43;15;14;10
57049;PMS7003;42935;50.966;16.992;2023-03-30T09:38:10;14;12;10
57049;PMS7003;42935;50.966;16.992;2023-03-30T09:44:59;16;14;10
57049;PMS7003;42935;50.966;16.992;2023-03-30T09:48:28;18;15;11
57049;PMS7003;42935;50.966;16.992;2023-03-30T09:52:05;16;14;10
57049;PMS7003;42935;50.966;16.992;2023-03-30T09:55:28;15;12;9
57049;PMS7003;42935;50.966;16.992;2023-03-30T09:59:21;13;12;8
57049;PMS7003;42935;50.966;16.992;2023-03-30T10:02:53;19;16;11
57049;PMS7003;42935;50.966;16.992;2023-03-30T10:06:18;13;12;9
57049;PMS7003;42935;50.966;16.992;2023-03-30T10:09:41;15;13;10
57049;PMS7003;42935;50.966;16.992;2023-03-30T10:13:05;15;13;10
57049;PMS7003;42935;50.966;16.992;2023-03-30T10:16:30;16;13;9
57049;PMS7003;42935;50.966;16.992;2023-03-30T10:19:51;19;14;11
57049;PMS7003;42935;50.966;16.992;2023-03-30T10:23:19;20;16;11
57049;PMS7003;42935;50.966;16.992;2023-03-30T10:26:44;16;14;11
57049;PMS7003;42935;50.966;16.992;2023-03-30T10:30:08;16;13;10
57049;PMS7003;42935;50.966;16.992;2023-03-30T10:33:30;17;13;9
57049;PMS7003;42935;50.966;16.992;2023-03-30T10:36:58;13;11;9
57049;PMS7003;42935;50.966;16.992;2023-03-30T10:40:27;13;12;9
57049;PMS7003;42935;50.966;16.992;2023-03-30T10:44:03;14;13;10
57049;PMS7003;42935;50.966;16.992;2023-03-30T10:58:14;14;13;10
57049;PMS7003;42935;50.966;16.992;2023-03-30T11:05:18;17;15;11
57049;PMS7003;42935;50.966;16.992;2023-03-30T11:08:47;15;13;10
57049;PMS7003;42935;50.966;16.992;2023-03-30T11:12:14;14;11;8
57049;PMS7003;42935;50.966;16.992;2023-03-30T11:22:46;9;8;6
57049;PMS7003;42935;50.966;16.992;2023-03-30T11:26:09;11;8;6
57049;PMS7003;42935;50.966;16.992;2023-03-30T11:43:37;13;10;8
57049;PMS7003;42935;50.966;16.992;2023-03-30T11:50:46;13;11;8
57049;PMS7003;42935;50.966;16.992;2023-03-30T11:57:56;16;12;9
57049;PMS7003;42935;50.966;16.992;2023-03-30T12:01:25;12;10;8
57049;PMS7003;42935;50.966;16.992;2023-03-30T12:30:09;17;14;11
57049;PMS7003;42935;50.966;16.992;2023-03-30T12:33:27;16;15;10
57049;PMS7003;42935;50.966;16.992;2023-03-30T12:40:34;15;14;9
57049;PMS7003;42935;50.966;16.992;2023-03-30T12:47:35;16;13;10
57049;PMS7003;42935;50.966;16.992;2023-03-30T12:54:41;11;9;7
57049;PMS7003;42935;50.966;16.992;2023-03-30T13:05:28;13;10;7
57049;PMS7003;42935;50.966;16.992;2023-03-30T13:08:43;15;13;10
57049;PMS7003;42935;50.966;16.992;2023-03-30T13:12:13;16;14;10
57049;PMS7003;42935;50.966;16.992;2023-03-30T13:15:45;16;15;11
57049;PMS7003;42935;50.966;16.992;2023-03-30T13:26:22;17;15;11
57049;PMS7003;42935;50.966;16.992;2023-03-30T13:29:48;16;13;10
57049;PMS7003;42935;50.966;16.992;2023-03-30T13:33:18;16;14;11
57049;PMS7003;42935;50.966;16.992;2023-03-30T13:36:40;15;13;9
57049;PMS7003;42935;50.966;16.992;2023-03-30T13:43:42;14;12;9
57049;PMS7003;42935;50.966;16.992;2023-03-30T13:47:26;16;11;9
57049;PMS7003;42935;50.966;16.992;2023-03-30T13:51:11;14;12;9
57049;PMS7003;42935;50.966;16.992;2023-03-30T13:54:36;11;11;8
57049;PMS7003;42935;50.966;16.992;2023-03-30T13:58:05;9;8;7
57049;PMS7003;42935;50.966;16.992;2023-03-30T14:01:38;12;9;8
57049;PMS7003;42935;50.966;16.992;2023-03-30T14:05:10;13;11;8
57049;PMS7003;42935;50.966;16.992;2023-03-30T14:08:36;8;8;7
57049;PMS7003;42935;50.966;16.992;2023-03-30T14:11:58;8;6;5
57049;PMS7003;42935;50.966;16.992;2023-03-30T14:22:26;8;6;5
57049;PMS7003;42935;50.966;16.992;2023-03-30T14:25:51;11;7;6
57049;PMS7003;42935;50.966;16.992;2023-03-30T14:29:17;9;9;7
57049;PMS7003;42935;50.966;16.992;2023-03-30T14:32:38;8;8;6
57049;PMS7003;42935;50.966;16.992;2023-03-30T14:35:55;7;6;5
57049;PMS7003;42935;50.966;16.992;2023-03-30T14:39:16;10;7;6
57049;PMS7003;42935;50.966;16.992;2023-03-30T14:42:41;8;7;5
57049;PMS7003;42935;50.966;16.992;2023-03-30T14:46:03;3;2;2
57049;PMS7003;42935;50.966;16.992;2023-03-30T14:49:27;5;4;4
57049;PMS7003;42935;50.966;16.992;2023-03-30T14:52:51;6;5;4
57049;PMS7003;42935;50.966;16.992;2023-03-30T14:56:15;5;4;4
57049;PMS7003;42935;50.966;16.992;2023-03-30T14:59:32;5;4;3
57049;PMS7003;42935;50.966;16.992;2023-03-30T15:02:56;6;6;5
57049;PMS7003;42935;50.966;16.992;2023-03-30T15:06:20;5;4;3
57049;PMS7003;42935;50.966;16.992;2023-03-30T15:09:38;7;6;5
57049;PMS7003;42935;50.966;16.992;2023-03-30T15:12:58;8;6;5
57049;PMS7003;42935;50.966;16.992;2023-03-30T15:16:50;8;5;4
57049;PMS7003;42935;50.966;16.992;2023-03-30T15:20:17;8;6;4
57049;PMS7003;42935;50.966;16.992;2023-03-30T15:23:38;5;4;4
57049;PMS7003;42935;50.966;16.992;2023-03-30T15:27:04;6;5;3
57049;PMS7003;42935;50.966;16.992;2023-03-30T15:30:33;7;6;4
57049;PMS7003;42935;50.966;16.992;2023-03-30T15:33:57;7;5;4
57049;PMS7003;42935;50.966;16.992;2023-03-30T15:37:19;6;5;4
57049;PMS7003;42935;50.966;16.992;2023-03-30T15:40:42;7;7;5
57049;PMS7003;42935;50.966;16.992;2023-03-30T15:44:08;7;7;5
57049;PMS7003;42935;50.966;16.992;2023-03-30T15:47:31;7;5;4
57049;PMS7003;42935;50.966;16.992;2023-03-30T15:50:51;5;4;4
57049;PMS7003;42935;50.966;16.992;2023-03-30T15:54:15;5;5;4
57049;PMS7003;42935;50.966;16.992;2023-03-30T15:57:45;4;4;4
57049;PMS7003;42935;50.966;16.992;2023-03-30T16:01:08;7;5;4
57049;PMS7003;42935;50.966;16.992;2023-03-30T16:04:34;5;5;3
57049;PMS7003;42935;50.966;16.992;2023-03-30T16:07:54;7;6;5
57049;PMS7003;42935;50.966;16.992;2023-03-30T16:11:17;8;7;5
57049;PMS7003;42935;50.966;16.992;2023-03-30T16:18:32;8;6;4
57049;PMS7003;42935;50.966;16.992;2023-03-30T16:21:54;8;7;6
57049;PMS7003;42935;50.966;16.992;2023-03-30T16:25:14;8;6;5
57049;PMS7003;42935;50.966;16.992;2023-03-30T16:28:34;8;6;4
57049;PMS7003;42935;50.966;16.992;2023-03-30T16:31:54;7;6;5
57049;PMS7003;42935;50.966;16.992;2023-03-30T16:35:15;4;4;4
57049;PMS7003;42935;50.966;16.992;2023-03-30T16:38:39;6;5;4
57049;PMS7003;42935;50.966;16.992;2023-03-30T16:41:59;9;6;5
57049;PMS7003;42935;50.966;16.992;2023-03-30T16:45:19;10;8;6
57049;PMS7003;42935;50.966;16.992;2023-03-30T16:48:39;10;8;6
57049;PMS7003;42935;50.966;16.992;2023-03-30T16:52:00;12;8;6
57049;PMS7003;42935;50.966;16.992;2023-03-30T16:55:19;9;8;6
57049;PMS7003;42935;50.966;16.992;2023-03-30T16:58:39;15;11;8
57049;PMS7003;42935;50.966;16.992;2023-03-30T17:01:59;11;8;6
57049;PMS7003;42935;50.966;16.992;2023-03-30T17:05:21;8;8;6
57049;PMS7003;42935;50.966;16.992;2023-03-30T17:08:36;11;5;4
57049;PMS7003;42935;50.966;16.992;2023-03-30T17:11:56;6;6;4
57049;PMS7003;42935;50.966;16.992;2023-03-30T17:15:17;11;7;5
57049;PMS7003;42935;50.966;16.992;2023-03-30T17:18:39;8;8;7
57049;PMS7003;42935;50.966;16.992;2023-03-30T17:22:30;9;7;6
57049;PMS7003;42935;50.966;16.992;2023-03-30T17:25:50;9;8;6
57049;PMS7003;42935;50.966;16.992;2023-03-30T17:29:10;10;8;6
57049;PMS7003;42935;50.966;16.992;2023-03-30T17:32:29;8;7;5
57049;PMS7003;42935;50.966;16.992;2023-03-30T17:35:50;11;9;7
57049;PMS7003;42935;50.966;16.992;2023-03-30T17:39:15;12;8;6
57049;PMS7003;42935;50.966;16.992;2023-03-30T17:42:34;12;11;7
57049;PMS7003;42935;50.966;16.992;2023-03-30T17:45:57;9;9;7
57049;PMS7003;42935;50.966;16.992;2023-03-30T17:49:18;12;11;8
57049;PMS7003;42935;50.966;16.992;2023-03-30T17:53:11;13;12;8
57049;PMS7003;42935;50.966;16.992;2023-03-30T17:56:33;13;11;8
57049;PMS7003;42935;50.966;16.992;2023-03-30T17:59:53;13;11;8
57049;PMS7003;42935;50.966;16.992;2023-03-30T18:03:15;17;13;9
57049;PMS7003;42935;50.966;16.992;2023-03-30T18:06:37;15;11;8
57049;PMS7003;42935;50.966;16.992;2023-03-30T18:09:56;18;15;11
57049;PMS7003;42935;50.966;16.992;2023-03-30T18:13:15;16;14;9
57049;PMS7003;42935;50.966;16.992;2023-03-30T18:16:38;19;15;10
57049;PMS7003;42935;50.966;16.992;2023-03-30T18:20:09;16;14;10
57049;PMS7003;42935;50.966;16.992;2023-03-30T18:23:30;13;12;8
57049;PMS7003;42935;50.966;16.992;2023-03-30T18:26:51;18;17;13
57049;PMS7003;42935;50.966;16.992;2023-03-30T18:30:13;17;15;11
57049;PMS7003;42935;50.966;16.992;2023-03-30T18:33:37;16;13;10
57049;PMS7003;42935;50.966;16.992;2023-03-30T18:36:59;18;16;11
57049;PMS7003;42935;50.966;16.992;2023-03-30T18:40:22;18;14;9
57049;PMS7003;42935;50.966;16.992;2023-03-30T18:43:43;15;14;10
57049;PMS7003;42935;50.966;16.992;2023-03-30T18:47:03;18;15;11
57049;PMS7003;42935;50.966;16.992;2023-03-30T18:53:55;20;16;12
57049;PMS7003;42935;50.966;16.992;2023-03-30T18:57:19;21;17;11
57049;PMS7003;42935;50.966;16.992;2023-03-30T19:00:41;18;15;11
57049;PMS7003;42935;50.966;16.992;2023-03-30T19:04:00;17;15;11
57049;PMS7003;42935;50.966;16.992;2023-03-30T19:07:17;18;15;12
57049;PMS7003;42935;50.966;16.992;2023-03-30T19:10:38;22;17;13
57049;PMS7003;42935;50.966;16.992;2023-03-30T19:14:00;19;16;12
57049;PMS7003;42935;50.966;16.992;2023-03-30T19:17:21;21;19;14
57049;PMS7003;42935;50.966;16.992;2023-03-30T19:20:46;21;18;12
57049;PMS7003;42935;50.966;16.992;2023-03-30T19:24:05;18;15;11
57049;PMS7003;42935;50.966;16.992;2023-03-30T19:27:25;18;14;10
57049;PMS7003;42935;50.966;16.992;2023-03-30T19:30:48;13;12;7
57049;PMS7003;42935;50.966;16.992;2023-03-30T19:34:08;13;10;7
57049;PMS7003;42935;50.966;16.992;2023-03-30T19:37:28;11;9;6
57049;PMS7003;42935;50.966;16.992;2023-03-30T19:40:50;11;8;5
57049;PMS7003;42935;50.966;16.992;2023-03-30T19:44:08;9;8;6
57049;PMS7003;42935;50.966;16.992;2023-03-30T19:47:28;9;7;5
57049;PMS7003;42935;50.966;16.992;2023-03-30T19:50:49;13;9;6
57049;PMS7003;42935;50.966;16.992;2023-03-30T19:54:09;10;7;5
57049;PMS7003;42935;50.966;16.992;2023-03-30T19:57:29;9;6;4
57049;PMS7003;42935;50.966;16.992;2023-03-30T20:00:46;8;6;4
57049;PMS7003;42935;50.966;16.992;2023-03-30T20:04:03;13;9;6
57049;PMS7003;42935;50.966;16.992;2023-03-30T20:07:23;6;6;4
57049;PMS7003;42935;50.966;16.992;2023-03-30T20:10:46;5;5;4
57049;PMS7003;42935;50.966;16.992;2023-03-30T20:14:09;6;4;3
57049;PMS7003;42935;50.966;16.992;2023-03-30T20:17:29;6;5;3
57049;PMS7003;42935;50.966;16.992;2023-03-30T20:20:49;6;5;4
57049;PMS7003;42935;50.966;16.992;2023-03-30T20:24:09;4;4;3
57049;PMS7003;42935;50.966;16.992;2023-03-30T20:27:29;5;3;2
57049;PMS7003;42935;50.966;16.992;2023-03-30T20:30:53;5;4;3
57049;PMS7003;42935;50.966;16.992;2023-03-30T20:34:14;4;4;3
57049;PMS7003;42935;50.966;16.992;2023-03-30T20:37:35;7;4;3
57049;PMS7003;42935;50.966;16.992;2023-03-30T20:40:56;11;7;5
57049;PMS7003;42935;50.966;16.992;2023-03-30T20:44:21;12;10;7
57049;PMS7003;42935;50.966;16.992;2023-03-30T20:47:49;11;8;6
57049;PMS7003;42935;50.966;16.992;2023-03-30T20:51:11;15;11;8
57049;PMS7003;42935;50.966;16.992;2023-03-30T20:54:33;10;6;5
57049;PMS7003;42935;50.966;16.992;2023-03-30T20:57:51;9;7;5
57049;PMS7003;42935;50.966;16.992;2023-03-30T21:04:41;9;8;5
57049;PMS7003;42935;50.966;16.992;2023-03-30T21:08:01;7;6;5
57049;PMS7003;42935;50.966;16.992;2023-03-30T21:11:24;7;6;4
57049;PMS7003;42935;50.966;16.992;2023-03-30T21:14:49;6;4;3
57049;PMS7003;42935;50.966;16.992;2023-03-30T21:18:06;8;5;4
57049;PMS7003;42935;50.966;16.992;2023-03-30T21:21:21;8;4;4
57049;PMS7003;42935;50.966;16.992;2023-03-30T21:24:45;8;6;4
57049;PMS7003;42935;50.966;16.992;2023-03-30T21:28:05;9;7;5
57049;PMS7003;42935;50.966;16.992;2023-03-30T21:31:24;14;11;7
57049;PMS7003;42935;50.966;16.992;2023-03-30T21:34:43;17;14;9
57049;PMS7003;42935;50.966;16.992;2023-03-30T21:37:58;12;9;6
57049;PMS7003;42935;50.966;16.992;2023-03-30T21:41:14;9;6;4
57049;PMS7003;42935;50.966;16.992;2023-03-30T21:44:37;9;6;4
57049;PMS7003;42935;50.966;16.992;2023-03-30T21:47:52;7;6;4
57049;PMS7003;42935;50.966;16.992;2023-03-30T21:51:13;8;6;5
57049;PMS7003;42935;50.966;16.992;2023-03-30T21:54:38;8;7;5
57049;PMS7003;42935;50.966;16.992;2023-03-30T21:57:55;9;7;5
57049;PMS7003;42935;50.966;16.992;2023-03-30T22:01:10;9;7;5
57049;PMS7003;42935;50.966;16.992;2023-03-30T22:04:30;6;5;4
57049;PMS7003;42935;50.966;16.992;2023-03-30T22:07:46;6;6;4
57049;PMS7003;42935;50.966;16.992;2023-03-30T22:11:06;5;5;4
57049;PMS7003;42935;50.966;16.992;2023-03-30T22:14:29;8;6;4
57049;PMS7003;42935;50.966;16.992;2023-03-30T22:17:54;6;5;4
57049;PMS7003;42935;50.966;16.992;2023-03-30T22:21:12;5;4;3
57049;PMS7003;42935;50.966;16.992;2023-03-30T22:24:31;5;4;3
57049;PMS7003;42935;50.966;16.992;2023-03-30T22:27:47;6;4;3
57049;PMS7003;42935;50.966;16.992;2023-03-30T22:31:08;6;4;3
57049;PMS7003;42935;50.966;16.992;2023-03-30T22:34:27;8;5;4
57049;PMS7003;42935;50.966;16.992;2023-03-30T22:37:48;9;5;3
57049;PMS7003;42935;50.966;16.992;2023-03-30T22:41:06;10;5;4
57049;PMS7003;42935;50.966;16.992;2023-03-30T22:44:25;9;7;4
57049;PMS7003;42935;50.966;16.992;2023-03-30T22:47:43;11;7;5
57049;PMS7003;42935;50.966;16.992;2023-03-30T22:51:03;12;8;6
57049;PMS7003;42935;50.966;16.992;2023-03-30T22:54:25;12;8;5
57049;PMS7003;42935;50.966;16.992;2023-03-30T22:57:42;8;8;5
57049;PMS7003;42935;50.966;16.992;2023-03-30T23:01:05;8;7;4
57049;PMS7003;42935;50.966;16.992;2023-03-30T23:04:31;11;6;4
57049;PMS7003;42935;50.966;16.992;2023-03-30T23:07:52;7;6;5
57049;PMS7003;42935;50.966;16.992;2023-03-30T23:11:08;8;4;3
57049;PMS7003;42935;50.966;16.992;2023-03-30T23:14:27;10;7;4
57049;PMS7003;42935;50.966;16.992;2023-03-30T23:17:48;10;7;4
57049;PMS7003;42935;50.966;16.992;2023-03-30T23:21:06;8;6;4
57049;PMS7003;42935;50.966;16.992;2023-03-30T23:24:34;10;8;6
57049;PMS7003;42935;50.966;16.992;2023-03-30T23:27:55;14;8;6
57049;PMS7003;42935;50.966;16.992;2023-03-30T23:31:12;11;9;6
57049;PMS7003;42935;50.966;16.992;2023-03-30T23:34:36;11;9;6
57049;PMS7003;42935;50.966;16.992;2023-03-30T23:37:55;10;7;6
57049;PMS7003;42935;50.966;16.992;2023-03-30T23:41:13;10;8;5
57049;PMS7003;42935;50.966;16.992;2023-03-30T23:44:33;11;10;6
57049;PMS7003;42935;50.966;16.992;2023-03-30T23:47:57;9;7;5
57049;PMS7003;42935;50.966;16.992;2023-03-30T23:51:16;10;8;5
57049;PMS7003;42935;50.966;16.992;2023-03-30T23:54:37;10;8;5
57049;PMS7003;42935;50.966;16.992;2023-03-30T23:57:56;8;6;4
